sensor_id;sensor_type;location;lat;lon;timestamp;P1;durP1;ratioP1;P2;durP2;ratioP2
12110;SDS011;6119;52.372;8.990;2023-11-19T00:01:19;0.93;;;0.93;;
12110;SDS011;6119;52.372;8.990;2023-11-19T00:04:06;1.50;;;1.20;;
12110;SDS011;6119;52.372;8.990;2023-11-19T00:06:53;1.00;;;1.00;;
12110;SDS011;6119;52.372;8.990;2023-11-19T00:09:42;1.10;;;1.10;;
12110;SDS011;6119;52.372;8.990;2023-11-19T00:12:29;1.20;;;1.10;;
12110;SDS011;6119;52.372;8.990;2023-11-19T00:15:16;1.27;;;1.17;;
12110;SDS011;6119;52.372;8.990;2023-11-19T00:18:06;1.17;;;1.17;;
12110;SDS011;6119;52.372;8.990;2023-11-19T00:20:53;2.87;;;1.20;;
12110;SDS011;6119;52.372;8.990;2023-11-19T00:23:39;3.60;;;1.10;;
12110;SDS011;6119;52.372;8.990;2023-11-19T00:26:26;1.23;;;1.10;;
12110;SDS011;6119;52.372;8.990;2023-11-19T00:29:12;1.20;;;1.10;;
12110;SDS011;6119;52.372;8.990;2023-11-19T00:31:59;1.03;;;1.03;;
12110;SDS011;6119;52.372;8.990;2023-11-19T00:34:48;1.50;;;1.40;;
12110;SDS011;6119;52.372;8.990;2023-11-19T00:37:35;1.13;;;1.13;;
12110;SDS011;6119;52.372;8.990;2023-11-19T00:40:21;1.30;;;1.20;;
12110;SDS011;6119;52.372;8.990;2023-11-19T00:43:09;3.00;;;1.37;;
12110;SDS011;6119;52.372;8.990;2023-11-19T00:45:55;1.40;;;1.23;;
12110;SDS011;6119;52.372;8.990;2023-11-19T00:48:42;1.63;;;1.53;;
12110;SDS011;6119;52.372;8.990;2023-11-19T00:51:30;1.50;;;1.40;;
12110;SDS011;6119;52.372;8.990;2023-11-19T00:54:17;1.73;;;1.50;;
12110;SDS011;6119;52.372;8.990;2023-11-19T00:57:04;1.63;;;1.53;;
12110;SDS011;6119;52.372;8.990;2023-11-19T00:59:50;1.40;;;1.30;;
12110;SDS011;6119;52.372;8.990;2023-11-19T01:02:37;1.47;;;1.37;;
12110;SDS011;6119;52.372;8.990;2023-11-19T01:05:24;1.63;;;1.53;;
12110;SDS011;6119;52.372;8.990;2023-11-19T01:08:12;1.60;;;1.50;;
12110;SDS011;6119;52.372;8.990;2023-11-19T01:10:59;1.53;;;1.40;;
12110;SDS011;6119;52.372;8.990;2023-11-19T01:13:47;1.53;;;1.43;;
12110;SDS011;6119;52.372;8.990;2023-11-19T01:16:34;1.50;;;1.40;;
12110;SDS011;6119;52.372;8.990;2023-11-19T01:19:21;2.00;;;1.23;;
12110;SDS011;6119;52.372;8.990;2023-11-19T01:22:09;1.93;;;1.10;;
12110;SDS011;6119;52.372;8.990;2023-11-19T01:24:57;2.13;;;1.20;;
12110;SDS011;6119;52.372;8.990;2023-11-19T01:27:43;1.63;;;1.10;;
12110;SDS011;6119;52.372;8.990;2023-11-19T01:30:30;0.97;;;0.97;;
12110;SDS011;6119;52.372;8.990;2023-11-19T01:33:16;1.20;;;1.10;;
12110;SDS011;6119;52.372;8.990;2023-11-19T01:36:03;1.00;;;0.90;;
12110;SDS011;6119;52.372;8.990;2023-11-19T01:38:51;1.57;;;1.20;;
12110;SDS011;6119;52.372;8.990;2023-11-19T01:41:39;1.50;;;1.33;;
12110;SDS011;6119;52.372;8.990;2023-11-19T01:44:25;1.33;;;1.20;;
12110;SDS011;6119;52.372;8.990;2023-11-19T01:47:12;1.03;;;1.00;;
12110;SDS011;6119;52.372;8.990;2023-11-19T01:49:59;1.47;;;1.13;;
12110;SDS011;6119;52.372;8.990;2023-11-19T01:52:50;1.30;;;1.20;;
12110;SDS011;6119;52.372;8.990;2023-11-19T01:55:39;1.23;;;1.13;;
12110;SDS011;6119;52.372;8.990;2023-11-19T01:58:27;1.57;;;0.90;;
12110;SDS011;6119;52.372;8.990;2023-11-19T02:01:15;0.63;;;0.63;;
12110;SDS011;6119;52.372;8.990;2023-11-19T02:04:03;1.23;;;1.00;;
12110;SDS011;6119;52.372;8.990;2023-11-19T02:06:51;1.23;;;1.13;;
12110;SDS011;6119;52.372;8.990;2023-11-19T02:09:42;1.63;;;1.07;;
12110;SDS011;6119;52.372;8.990;2023-11-19T02:12:29;1.40;;;1.07;;
12110;SDS011;6119;52.372;8.990;2023-11-19T02:15:20;1.13;;;1.03;;
12110;SDS011;6119;52.372;8.990;2023-11-19T02:18:19;1.10;;;1.10;;
12110;SDS011;6119;52.372;8.990;2023-11-19T02:21:07;1.40;;;1.30;;
12110;SDS011;6119;52.372;8.990;2023-11-19T02:23:55;1.90;;;1.80;;
12110;SDS011;6119;52.372;8.990;2023-11-19T02:26:55;2.10;;;1.90;;
12110;SDS011;6119;52.372;8.990;2023-11-19T02:29:50;2.87;;;1.80;;
12110;SDS011;6119;52.372;8.990;2023-11-19T02:32:38;3.87;;;2.10;;
12110;SDS011;6119;52.372;8.990;2023-11-19T02:35:26;2.50;;;2.30;;
12110;SDS011;6119;52.372;8.990;2023-11-19T02:38:15;2.50;;;2.30;;
12110;SDS011;6119;52.372;8.990;2023-11-19T02:41:03;2.87;;;2.57;;
12110;SDS011;6119;52.372;8.990;2023-11-19T02:43:51;3.30;;;3.00;;
12110;SDS011;6119;52.372;8.990;2023-11-19T02:46:40;4.00;;;3.60;;
12110;SDS011;6119;52.372;8.990;2023-11-19T02:49:28;6.13;;;3.80;;
12110;SDS011;6119;52.372;8.990;2023-11-19T02:52:14;5.73;;;4.33;;
12110;SDS011;6119;52.372;8.990;2023-11-19T02:55:01;4.30;;;3.90;;
12110;SDS011;6119;52.372;8.990;2023-11-19T02:57:54;4.37;;;3.97;;
12110;SDS011;6119;52.372;8.990;2023-11-19T03:00:41;5.10;;;4.60;;
12110;SDS011;6119;52.372;8.990;2023-11-19T03:03:38;4.67;;;4.07;;
12110;SDS011;6119;52.372;8.990;2023-11-19T03:06:27;5.00;;;3.83;;
12110;SDS011;6119;52.372;8.990;2023-11-19T03:09:13;5.27;;;3.93;;
12110;SDS011;6119;52.372;8.990;2023-11-19T03:12:00;4.53;;;4.07;;
12110;SDS011;6119;52.372;8.990;2023-11-19T03:14:47;5.73;;;3.87;;
12110;SDS011;6119;52.372;8.990;2023-11-19T03:17:35;4.53;;;4.13;;
12110;SDS011;6119;52.372;8.990;2023-11-19T03:20:24;7.87;;;4.10;;
12110;SDS011;6119;52.372;8.990;2023-11-19T03:23:13;5.03;;;4.53;;
12110;SDS011;6119;52.372;8.990;2023-11-19T03:26:00;5.00;;;4.27;;
12110;SDS011;6119;52.372;8.990;2023-11-19T03:28:50;5.40;;;4.80;;
12110;SDS011;6119;52.372;8.990;2023-11-19T03:31:36;5.57;;;4.73;;
12110;SDS011;6119;52.372;8.990;2023-11-19T03:34:28;8.80;;;5.20;;
12110;SDS011;6119;52.372;8.990;2023-11-19T03:37:16;5.93;;;5.33;;
12110;SDS011;6119;52.372;8.990;2023-11-19T03:40:05;6.20;;;5.60;;
12110;SDS011;6119;52.372;8.990;2023-11-19T03:42:53;7.20;;;6.50;;
12110;SDS011;6119;52.372;8.990;2023-11-19T03:45:41;6.90;;;6.10;;
12110;SDS011;6119;52.372;8.990;2023-11-19T03:48:28;6.80;;;6.10;;
12110;SDS011;6119;52.372;8.990;2023-11-19T03:51:15;9.13;;;7.47;;
12110;SDS011;6119;52.372;8.990;2023-11-19T03:54:04;10.00;;;7.63;;
12110;SDS011;6119;52.372;8.990;2023-11-19T03:56:52;12.00;;;7.37;;
12110;SDS011;6119;52.372;8.990;2023-11-19T03:59:39;9.27;;;7.93;;
12110;SDS011;6119;52.372;8.990;2023-11-19T04:02:26;11.63;;;8.57;;
12110;SDS011;6119;52.372;8.990;2023-11-19T04:05:13;17.10;;;9.23;;
12110;SDS011;6119;52.372;8.990;2023-11-19T04:08:00;14.00;;;9.70;;
12110;SDS011;6119;52.372;8.990;2023-11-19T04:10:48;16.70;;;10.50;;
12110;SDS011;6119;52.372;8.990;2023-11-19T04:13:35;15.40;;;11.00;;
12110;SDS011;6119;52.372;8.990;2023-11-19T04:16:25;16.13;;;10.93;;
12110;SDS011;6119;52.372;8.990;2023-11-19T04:19:13;20.33;;;11.73;;
12110;SDS011;6119;52.372;8.990;2023-11-19T04:22:00;19.30;;;13.10;;
12110;SDS011;6119;52.372;8.990;2023-11-19T04:24:46;19.53;;;13.00;;
12110;SDS011;6119;52.372;8.990;2023-11-19T04:27:34;19.57;;;11.87;;
12110;SDS011;6119;52.372;8.990;2023-11-19T04:30:21;16.17;;;12.47;;
12110;SDS011;6119;52.372;8.990;2023-11-19T04:33:08;20.57;;;13.47;;
12110;SDS011;6119;52.372;8.990;2023-11-19T04:35:54;20.30;;;13.87;;
12110;SDS011;6119;52.372;8.990;2023-11-19T04:38:41;17.80;;;11.53;;
12110;SDS011;6119;52.372;8.990;2023-11-19T04:41:27;20.67;;;12.93;;
12110;SDS011;6119;52.372;8.990;2023-11-19T04:44:16;21.97;;;12.03;;
12110;SDS011;6119;52.372;8.990;2023-11-19T04:47:03;16.30;;;12.00;;
12110;SDS011;6119;52.372;8.990;2023-11-19T04:49:50;17.30;;;11.13;;
12110;SDS011;6119;52.372;8.990;2023-11-19T04:52:37;19.17;;;11.97;;
12110;SDS011;6119;52.372;8.990;2023-11-19T04:55:27;18.33;;;11.70;;
12110;SDS011;6119;52.372;8.990;2023-11-19T04:58:14;18.27;;;10.33;;
12110;SDS011;6119;52.372;8.990;2023-11-19T05:01:02;14.53;;;11.50;;
12110;SDS011;6119;52.372;8.990;2023-11-19T05:03:49;16.00;;;10.60;;
12110;SDS011;6119;52.372;8.990;2023-11-19T05:06:37;17.43;;;11.57;;
12110;SDS011;6119;52.372;8.990;2023-11-19T05:09:24;18.07;;;12.53;;
12110;SDS011;6119;52.372;8.990;2023-11-19T05:12:11;16.60;;;11.10;;
12110;SDS011;6119;52.372;8.990;2023-11-19T05:14:58;19.50;;;11.13;;
12110;SDS011;6119;52.372;8.990;2023-11-19T05:17:46;20.20;;;11.20;;
12110;SDS011;6119;52.372;8.990;2023-11-19T05:20:33;13.97;;;10.43;;
12110;SDS011;6119;52.372;8.990;2023-11-19T05:23:19;14.07;;;10.40;;
12110;SDS011;6119;52.372;8.990;2023-11-19T05:26:06;18.43;;;10.67;;
12110;SDS011;6119;52.372;8.990;2023-11-19T05:28:53;15.47;;;9.90;;
12110;SDS011;6119;52.372;8.990;2023-11-19T05:31:39;15.47;;;8.83;;
12110;SDS011;6119;52.372;8.990;2023-11-19T05:34:30;16.33;;;10.07;;
12110;SDS011;6119;52.372;8.990;2023-11-19T05:37:17;17.03;;;8.70;;
12110;SDS011;6119;52.372;8.990;2023-11-19T05:40:05;10.77;;;8.07;;
12110;SDS011;6119;52.372;8.990;2023-11-19T05:42:59;13.73;;;8.43;;
12110;SDS011;6119;52.372;8.990;2023-11-19T05:45:45;13.90;;;7.93;;
12110;SDS011;6119;52.372;8.990;2023-11-19T05:48:32;19.47;;;8.83;;
12110;SDS011;6119;52.372;8.990;2023-11-19T05:51:20;11.53;;;8.30;;
12110;SDS011;6119;52.372;8.990;2023-11-19T05:54:09;15.43;;;7.80;;
12110;SDS011;6119;52.372;8.990;2023-11-19T05:56:56;14.80;;;7.87;;
12110;SDS011;6119;52.372;8.990;2023-11-19T05:59:42;13.37;;;6.90;;
12110;SDS011;6119;52.372;8.990;2023-11-19T06:02:29;14.50;;;6.70;;
12110;SDS011;6119;52.372;8.990;2023-11-19T06:05:16;15.73;;;6.60;;
12110;SDS011;6119;52.372;8.990;2023-11-19T06:08:04;11.13;;;5.53;;
12110;SDS011;6119;52.372;8.990;2023-11-19T06:10:51;13.70;;;6.20;;
12110;SDS011;6119;52.372;8.990;2023-11-19T06:13:38;16.97;;;5.03;;
12110;SDS011;6119;52.372;8.990;2023-11-19T06:16:25;18.87;;;5.87;;
12110;SDS011;6119;52.372;8.990;2023-11-19T06:19:12;15.67;;;5.13;;
12110;SDS011;6119;52.372;8.990;2023-11-19T06:21:59;19.07;;;5.73;;
12110;SDS011;6119;52.372;8.990;2023-11-19T06:24:47;23.27;;;4.37;;
12110;SDS011;6119;52.372;8.990;2023-11-19T06:27:33;14.90;;;4.87;;
12110;SDS011;6119;52.372;8.990;2023-11-19T06:30:20;20.37;;;5.27;;
12110;SDS011;6119;52.372;8.990;2023-11-19T06:33:06;19.67;;;4.43;;
12110;SDS011;6119;52.372;8.990;2023-11-19T06:35:54;15.93;;;5.23;;
12110;SDS011;6119;52.372;8.990;2023-11-19T06:38:40;15.97;;;4.00;;
12110;SDS011;6119;52.372;8.990;2023-11-19T06:41:28;18.37;;;4.50;;
12110;SDS011;6119;52.372;8.990;2023-11-19T06:44:15;18.40;;;5.57;;
12110;SDS011;6119;52.372;8.990;2023-11-19T06:47:03;12.50;;;4.23;;
12110;SDS011;6119;52.372;8.990;2023-11-19T06:49:49;21.37;;;4.47;;
12110;SDS011;6119;52.372;8.990;2023-11-19T06:52:36;11.90;;;4.13;;
12110;SDS011;6119;52.372;8.990;2023-11-19T06:55:23;13.40;;;3.50;;
12110;SDS011;6119;52.372;8.990;2023-11-19T06:58:11;18.00;;;4.50;;
12110;SDS011;6119;52.372;8.990;2023-11-19T07:00:58;17.93;;;4.73;;
12110;SDS011;6119;52.372;8.990;2023-11-19T07:03:44;14.10;;;4.63;;
12110;SDS011;6119;52.372;8.990;2023-11-19T07:06:32;20.70;;;5.63;;
12110;SDS011;6119;52.372;8.990;2023-11-19T07:09:19;16.80;;;7.67;;
12110;SDS011;6119;52.372;8.990;2023-11-19T07:12:06;17.00;;;4.07;;
12110;SDS011;6119;52.372;8.990;2023-11-19T07:14:54;13.23;;;3.37;;
12110;SDS011;6119;52.372;8.990;2023-11-19T07:17:41;20.30;;;4.53;;
12110;SDS011;6119;52.372;8.990;2023-11-19T07:20:29;18.60;;;3.97;;
12110;SDS011;6119;52.372;8.990;2023-11-19T07:23:16;19.97;;;4.70;;
12110;SDS011;6119;52.372;8.990;2023-11-19T07:26:04;21.30;;;4.63;;
12110;SDS011;6119;52.372;8.990;2023-11-19T07:28:53;20.97;;;6.00;;
12110;SDS011;6119;52.372;8.990;2023-11-19T07:31:42;24.13;;;5.33;;
12110;SDS011;6119;52.372;8.990;2023-11-19T07:34:29;21.40;;;6.53;;
12110;SDS011;6119;52.372;8.990;2023-11-19T07:37:15;20.63;;;4.67;;
12110;SDS011;6119;52.372;8.990;2023-11-19T07:40:02;19.90;;;4.60;;
12110;SDS011;6119;52.372;8.990;2023-11-19T07:42:49;19.13;;;4.43;;
12110;SDS011;6119;52.372;8.990;2023-11-19T07:45:36;19.93;;;4.27;;
12110;SDS011;6119;52.372;8.990;2023-11-19T07:48:24;17.37;;;4.37;;
12110;SDS011;6119;52.372;8.990;2023-11-19T07:51:12;19.73;;;4.53;;
12110;SDS011;6119;52.372;8.990;2023-11-19T07:53:59;19.50;;;4.30;;
12110;SDS011;6119;52.372;8.990;2023-11-19T07:56:45;19.40;;;4.27;;
12110;SDS011;6119;52.372;8.990;2023-11-19T07:59:33;20.40;;;4.47;;
12110;SDS011;6119;52.372;8.990;2023-11-19T08:02:19;22.10;;;4.57;;
12110;SDS011;6119;52.372;8.990;2023-11-19T08:05:08;22.23;;;4.77;;
12110;SDS011;6119;52.372;8.990;2023-11-19T08:07:55;18.83;;;4.03;;
12110;SDS011;6119;52.372;8.990;2023-11-19T08:10:43;26.77;;;5.77;;
12110;SDS011;6119;52.372;8.990;2023-11-19T08:13:30;19.60;;;4.07;;
12110;SDS011;6119;52.372;8.990;2023-11-19T08:16:17;24.07;;;5.37;;
12110;SDS011;6119;52.372;8.990;2023-11-19T08:19:04;25.23;;;4.73;;
12110;SDS011;6119;52.372;8.990;2023-11-19T08:21:52;21.67;;;4.47;;
12110;SDS011;6119;52.372;8.990;2023-11-19T08:24:39;24.10;;;4.83;;
12110;SDS011;6119;52.372;8.990;2023-11-19T08:27:26;22.47;;;4.67;;
12110;SDS011;6119;52.372;8.990;2023-11-19T08:30:13;28.13;;;4.77;;
12110;SDS011;6119;52.372;8.990;2023-11-19T08:33:00;18.70;;;3.87;;
12110;SDS011;6119;52.372;8.990;2023-11-19T08:35:48;21.40;;;4.17;;
12110;SDS011;6119;52.372;8.990;2023-11-19T08:38:36;21.47;;;4.90;;
12110;SDS011;6119;52.372;8.990;2023-11-19T08:41:23;22.17;;;4.50;;
12110;SDS011;6119;52.372;8.990;2023-11-19T08:44:10;22.27;;;4.60;;
12110;SDS011;6119;52.372;8.990;2023-11-19T08:46:57;22.33;;;4.37;;
12110;SDS011;6119;52.372;8.990;2023-11-19T08:49:44;24.27;;;4.53;;
12110;SDS011;6119;52.372;8.990;2023-11-19T08:52:31;14.87;;;3.63;;
12110;SDS011;6119;52.372;8.990;2023-11-19T08:55:21;16.50;;;4.07;;
12110;SDS011;6119;52.372;8.990;2023-11-19T08:58:07;24.93;;;4.67;;
12110;SDS011;6119;52.372;8.990;2023-11-19T09:00:54;25.13;;;4.40;;
12110;SDS011;6119;52.372;8.990;2023-11-19T09:03:41;23.30;;;4.40;;
12110;SDS011;6119;52.372;8.990;2023-11-19T09:06:28;17.00;;;4.73;;
12110;SDS011;6119;52.372;8.990;2023-11-19T09:09:15;24.00;;;4.57;;
12110;SDS011;6119;52.372;8.990;2023-11-19T09:12:02;18.70;;;4.37;;
12110;SDS011;6119;52.372;8.990;2023-11-19T09:14:49;16.77;;;4.20;;
12110;SDS011;6119;52.372;8.990;2023-11-19T09:17:36;22.30;;;4.50;;
12110;SDS011;6119;52.372;8.990;2023-11-19T09:20:23;29.33;;;5.47;;
12110;SDS011;6119;52.372;8.990;2023-11-19T09:23:09;20.60;;;4.90;;
12110;SDS011;6119;52.372;8.990;2023-11-19T09:25:57;23.30;;;4.87;;
12110;SDS011;6119;52.372;8.990;2023-11-19T09:28:46;29.80;;;7.77;;
12110;SDS011;6119;52.372;8.990;2023-11-19T09:31:33;24.23;;;4.60;;
12110;SDS011;6119;52.372;8.990;2023-11-19T09:34:19;17.07;;;4.97;;
12110;SDS011;6119;52.372;8.990;2023-11-19T09:37:06;28.63;;;6.67;;
12110;SDS011;6119;52.372;8.990;2023-11-19T09:40:06;28.37;;;6.83;;
12110;SDS011;6119;52.372;8.990;2023-11-19T09:42:54;26.80;;;5.30;;
12110;SDS011;6119;52.372;8.990;2023-11-19T09:45:45;27.23;;;5.03;;
12110;SDS011;6119;52.372;8.990;2023-11-19T09:48:36;23.83;;;5.83;;
12110;SDS011;6119;52.372;8.990;2023-11-19T09:51:23;22.60;;;4.47;;
12110;SDS011;6119;52.372;8.990;2023-11-19T09:54:11;26.20;;;5.43;;
12110;SDS011;6119;52.372;8.990;2023-11-19T09:56:58;15.93;;;4.23;;
12110;SDS011;6119;52.372;8.990;2023-11-19T09:59:49;24.07;;;4.63;;
12110;SDS011;6119;52.372;8.990;2023-11-19T10:02:39;20.03;;;4.80;;
12110;SDS011;6119;52.372;8.990;2023-11-19T10:05:27;18.40;;;4.23;;
12110;SDS011;6119;52.372;8.990;2023-11-19T10:08:14;22.90;;;4.47;;
12110;SDS011;6119;52.372;8.990;2023-11-19T10:11:01;20.87;;;4.47;;
12110;SDS011;6119;52.372;8.990;2023-11-19T10:13:48;27.63;;;5.33;;
12110;SDS011;6119;52.372;8.990;2023-11-19T10:16:35;25.73;;;5.00;;
12110;SDS011;6119;52.372;8.990;2023-11-19T10:19:25;16.63;;;5.20;;
12110;SDS011;6119;52.372;8.990;2023-11-19T10:22:12;26.10;;;5.70;;
12110;SDS011;6119;52.372;8.990;2023-11-19T10:25:01;20.40;;;6.73;;
12110;SDS011;6119;52.372;8.990;2023-11-19T10:27:49;21.77;;;6.47;;
12110;SDS011;6119;52.372;8.990;2023-11-19T10:30:40;29.90;;;6.47;;
12110;SDS011;6119;52.372;8.990;2023-11-19T10:33:28;24.70;;;6.27;;
12110;SDS011;6119;52.372;8.990;2023-11-19T10:36:17;17.07;;;5.13;;
12110;SDS011;6119;52.372;8.990;2023-11-19T10:39:06;21.30;;;5.50;;
12110;SDS011;6119;52.372;8.990;2023-11-19T10:41:54;21.50;;;5.47;;
12110;SDS011;6119;52.372;8.990;2023-11-19T10:44:43;19.63;;;4.77;;
12110;SDS011;6119;52.372;8.990;2023-11-19T10:47:30;22.50;;;5.80;;
12110;SDS011;6119;52.372;8.990;2023-11-19T10:50:22;27.47;;;5.60;;
12110;SDS011;6119;52.372;8.990;2023-11-19T10:53:11;18.70;;;4.87;;
12110;SDS011;6119;52.372;8.990;2023-11-19T10:55:59;24.50;;;5.40;;
12110;SDS011;6119;52.372;8.990;2023-11-19T10:58:47;21.57;;;5.37;;
12110;SDS011;6119;52.372;8.990;2023-11-19T11:01:39;23.57;;;4.93;;
12110;SDS011;6119;52.372;8.990;2023-11-19T11:04:30;25.27;;;4.83;;
12110;SDS011;6119;52.372;8.990;2023-11-19T11:07:23;21.20;;;4.60;;
12110;SDS011;6119;52.372;8.990;2023-11-19T11:10:25;22.90;;;4.73;;
12110;SDS011;6119;52.372;8.990;2023-11-19T11:13:13;19.47;;;5.27;;
12110;SDS011;6119;52.372;8.990;2023-11-19T11:16:00;25.47;;;4.83;;
12110;SDS011;6119;52.372;8.990;2023-11-19T11:18:49;24.67;;;4.57;;
12110;SDS011;6119;52.372;8.990;2023-11-19T11:21:37;20.17;;;4.40;;
12110;SDS011;6119;52.372;8.990;2023-11-19T11:24:31;20.90;;;5.03;;
12110;SDS011;6119;52.372;8.990;2023-11-19T11:27:46;24.27;;;6.43;;
12110;SDS011;6119;52.372;8.990;2023-11-19T11:30:46;27.20;;;7.83;;
12110;SDS011;6119;52.372;8.990;2023-11-19T11:33:56;20.07;;;5.50;;
12110;SDS011;6119;52.372;8.990;2023-11-19T11:36:53;25.97;;;5.20;;
12110;SDS011;6119;52.372;8.990;2023-11-19T11:39:49;22.77;;;5.30;;
12110;SDS011;6119;52.372;8.990;2023-11-19T11:42:36;25.27;;;5.43;;
12110;SDS011;6119;52.372;8.990;2023-11-19T11:45:36;18.47;;;5.03;;
12110;SDS011;6119;52.372;8.990;2023-11-19T11:48:23;25.13;;;6.00;;
12110;SDS011;6119;52.372;8.990;2023-11-19T11:51:13;23.00;;;5.00;;
12110;SDS011;6119;52.372;8.990;2023-11-19T11:54:00;23.77;;;5.57;;
12110;SDS011;6119;52.372;8.990;2023-11-19T11:57:00;21.93;;;4.50;;
12110;SDS011;6119;52.372;8.990;2023-11-19T11:59:51;19.53;;;5.23;;
12110;SDS011;6119;52.372;8.990;2023-11-19T12:02:40;20.57;;;4.67;;
12110;SDS011;6119;52.372;8.990;2023-11-19T12:05:27;29.30;;;5.10;;
12110;SDS011;6119;52.372;8.990;2023-11-19T12:08:18;23.43;;;4.57;;
12110;SDS011;6119;52.372;8.990;2023-11-19T12:11:11;28.93;;;4.70;;
12110;SDS011;6119;52.372;8.990;2023-11-19T12:13:58;25.40;;;5.07;;
12110;SDS011;6119;52.372;8.990;2023-11-19T12:16:48;21.77;;;5.40;;
12110;SDS011;6119;52.372;8.990;2023-11-19T12:19:39;22.47;;;4.73;;
12110;SDS011;6119;52.372;8.990;2023-11-19T12:22:29;29.83;;;5.93;;
12110;SDS011;6119;52.372;8.990;2023-11-19T12:25:16;23.03;;;5.13;;
12110;SDS011;6119;52.372;8.990;2023-11-19T12:28:04;16.13;;;4.17;;
12110;SDS011;6119;52.372;8.990;2023-11-19T12:30:50;24.93;;;4.53;;
12110;SDS011;6119;52.372;8.990;2023-11-19T12:33:38;17.03;;;3.83;;
12110;SDS011;6119;52.372;8.990;2023-11-19T12:36:26;21.83;;;4.57;;
12110;SDS011;6119;52.372;8.990;2023-11-19T12:39:13;16.63;;;4.10;;
12110;SDS011;6119;52.372;8.990;2023-11-19T12:42:00;21.27;;;4.60;;
12110;SDS011;6119;52.372;8.990;2023-11-19T12:44:55;14.63;;;3.80;;
12110;SDS011;6119;52.372;8.990;2023-11-19T12:47:42;18.40;;;4.20;;
12110;SDS011;6119;52.372;8.990;2023-11-19T12:53:48;23.20;;;4.43;;
12110;SDS011;6119;52.372;8.990;2023-11-19T12:56:38;19.50;;;4.33;;
12110;SDS011;6119;52.372;8.990;2023-11-19T12:59:26;23.90;;;4.87;;
12110;SDS011;6119;52.372;8.990;2023-11-19T13:02:13;22.33;;;4.07;;
12110;SDS011;6119;52.372;8.990;2023-11-19T13:08:12;24.27;;;5.47;;
12110;SDS011;6119;52.372;8.990;2023-11-19T13:11:00;19.47;;;3.73;;
12110;SDS011;6119;52.372;8.990;2023-11-19T13:13:53;22.70;;;5.60;;
12110;SDS011;6119;52.372;8.990;2023-11-19T13:16:40;18.00;;;4.73;;
12110;SDS011;6119;52.372;8.990;2023-11-19T13:19:28;30.73;;;5.73;;
12110;SDS011;6119;52.372;8.990;2023-11-19T13:22:15;21.53;;;5.67;;
12110;SDS011;6119;52.372;8.990;2023-11-19T13:25:02;21.77;;;5.23;;
12110;SDS011;6119;52.372;8.990;2023-11-19T13:27:51;22.07;;;5.30;;
12110;SDS011;6119;52.372;8.990;2023-11-19T13:30:39;22.83;;;4.47;;
12110;SDS011;6119;52.372;8.990;2023-11-19T13:33:25;22.80;;;4.63;;
12110;SDS011;6119;52.372;8.990;2023-11-19T13:36:13;18.37;;;4.37;;
12110;SDS011;6119;52.372;8.990;2023-11-19T13:39:01;24.10;;;4.73;;
12110;SDS011;6119;52.372;8.990;2023-11-19T13:41:49;22.33;;;4.30;;
12110;SDS011;6119;52.372;8.990;2023-11-19T13:44:37;29.30;;;5.63;;
12110;SDS011;6119;52.372;8.990;2023-11-19T13:47:24;23.90;;;4.70;;
12110;SDS011;6119;52.372;8.990;2023-11-19T13:50:11;16.23;;;4.30;;
12110;SDS011;6119;52.372;8.990;2023-11-19T13:52:59;23.07;;;4.73;;
12110;SDS011;6119;52.372;8.990;2023-11-19T13:55:46;18.20;;;3.83;;
12110;SDS011;6119;52.372;8.990;2023-11-19T13:58:33;18.83;;;3.47;;
12110;SDS011;6119;52.372;8.990;2023-11-19T14:01:23;31.40;;;9.33;;
12110;SDS011;6119;52.372;8.990;2023-11-19T14:04:12;29.63;;;10.73;;
12110;SDS011;6119;52.372;8.990;2023-11-19T14:06:59;20.53;;;4.83;;
12110;SDS011;6119;52.372;8.990;2023-11-19T14:09:46;22.10;;;5.33;;
12110;SDS011;6119;52.372;8.990;2023-11-19T14:12:32;18.43;;;4.70;;
12110;SDS011;6119;52.372;8.990;2023-11-19T14:15:19;24.33;;;4.73;;
12110;SDS011;6119;52.372;8.990;2023-11-19T14:18:07;18.67;;;4.87;;
12110;SDS011;6119;52.372;8.990;2023-11-19T14:20:54;29.07;;;5.60;;
12110;SDS011;6119;52.372;8.990;2023-11-19T14:23:41;26.43;;;6.07;;
12110;SDS011;6119;52.372;8.990;2023-11-19T14:26:27;20.90;;;4.37;;
12110;SDS011;6119;52.372;8.990;2023-11-19T14:29:14;24.70;;;5.20;;
12110;SDS011;6119;52.372;8.990;2023-11-19T14:32:01;22.87;;;4.63;;
12110;SDS011;6119;52.372;8.990;2023-11-19T14:34:50;21.50;;;4.27;;
12110;SDS011;6119;52.372;8.990;2023-11-19T14:37:36;22.93;;;4.60;;
12110;SDS011;6119;52.372;8.990;2023-11-19T14:40:23;20.33;;;4.60;;
12110;SDS011;6119;52.372;8.990;2023-11-19T14:43:13;15.80;;;4.90;;
12110;SDS011;6119;52.372;8.990;2023-11-19T14:46:01;20.87;;;5.10;;
12110;SDS011;6119;52.372;8.990;2023-11-19T14:48:48;25.53;;;4.97;;
12110;SDS011;6119;52.372;8.990;2023-11-19T14:51:37;22.10;;;5.00;;
12110;SDS011;6119;52.372;8.990;2023-11-19T14:54:24;22.57;;;5.63;;
12110;SDS011;6119;52.372;8.990;2023-11-19T14:57:11;19.63;;;4.20;;
12110;SDS011;6119;52.372;8.990;2023-11-19T14:59:58;27.37;;;4.77;;
12110;SDS011;6119;52.372;8.990;2023-11-19T15:02:46;28.47;;;4.73;;
12110;SDS011;6119;52.372;8.990;2023-11-19T15:05:33;20.73;;;4.70;;
12110;SDS011;6119;52.372;8.990;2023-11-19T15:08:21;18.63;;;4.17;;
12110;SDS011;6119;52.372;8.990;2023-11-19T15:11:08;21.90;;;4.63;;
12110;SDS011;6119;52.372;8.990;2023-11-19T15:13:55;16.97;;;4.23;;
12110;SDS011;6119;52.372;8.990;2023-11-19T15:16:42;19.80;;;4.57;;
12110;SDS011;6119;52.372;8.990;2023-11-19T15:19:29;19.50;;;5.53;;
12110;SDS011;6119;52.372;8.990;2023-11-19T15:22:15;22.33;;;4.00;;
12110;SDS011;6119;52.372;8.990;2023-11-19T15:25:04;14.40;;;4.30;;
12110;SDS011;6119;52.372;8.990;2023-11-19T15:27:55;23.67;;;4.03;;
12110;SDS011;6119;52.372;8.990;2023-11-19T15:30:41;16.20;;;4.47;;
12110;SDS011;6119;52.372;8.990;2023-11-19T15:33:28;14.20;;;3.83;;
12110;SDS011;6119;52.372;8.990;2023-11-19T15:36:15;17.73;;;4.43;;
12110;SDS011;6119;52.372;8.990;2023-11-19T15:39:02;19.80;;;4.27;;
12110;SDS011;6119;52.372;8.990;2023-11-19T15:41:51;22.13;;;4.77;;
12110;SDS011;6119;52.372;8.990;2023-11-19T15:44:37;16.47;;;4.10;;
12110;SDS011;6119;52.372;8.990;2023-11-19T15:47:24;19.17;;;5.17;;
12110;SDS011;6119;52.372;8.990;2023-11-19T15:50:11;16.37;;;3.87;;
12110;SDS011;6119;52.372;8.990;2023-11-19T15:52:58;14.53;;;4.17;;
12110;SDS011;6119;52.372;8.990;2023-11-19T15:55:46;20.43;;;4.03;;
12110;SDS011;6119;52.372;8.990;2023-11-19T15:58:34;20.30;;;5.57;;
12110;SDS011;6119;52.372;8.990;2023-11-19T16:01:21;19.13;;;4.30;;
12110;SDS011;6119;52.372;8.990;2023-11-19T16:04:08;14.60;;;4.07;;
12110;SDS011;6119;52.372;8.990;2023-11-19T16:06:55;19.30;;;3.73;;
12110;SDS011;6119;52.372;8.990;2023-11-19T16:09:41;10.73;;;4.30;;
12110;SDS011;6119;52.372;8.990;2023-11-19T16:12:28;19.10;;;4.80;;
12110;SDS011;6119;52.372;8.990;2023-11-19T16:15:16;15.80;;;4.40;;
12110;SDS011;6119;52.372;8.990;2023-11-19T16:18:20;14.60;;;3.80;;
12110;SDS011;6119;52.372;8.990;2023-11-19T16:21:07;15.33;;;4.17;;
12110;SDS011;6119;52.372;8.990;2023-11-19T16:23:54;18.30;;;4.37;;
12110;SDS011;6119;52.372;8.990;2023-11-19T16:26:41;14.67;;;3.60;;
12110;SDS011;6119;52.372;8.990;2023-11-19T16:29:27;16.40;;;4.00;;
12110;SDS011;6119;52.372;8.990;2023-11-19T16:32:15;9.80;;;3.50;;
12110;SDS011;6119;52.372;8.990;2023-11-19T16:35:03;22.50;;;5.17;;
12110;SDS011;6119;52.372;8.990;2023-11-19T16:37:50;12.87;;;3.77;;
12110;SDS011;6119;52.372;8.990;2023-11-19T16:40:37;18.40;;;4.37;;
12110;SDS011;6119;52.372;8.990;2023-11-19T16:43:25;16.53;;;3.63;;
12110;SDS011;6119;52.372;8.990;2023-11-19T16:46:13;17.87;;;3.67;;
12110;SDS011;6119;52.372;8.990;2023-11-19T16:49:01;18.40;;;3.80;;
12110;SDS011;6119;52.372;8.990;2023-11-19T16:51:49;16.13;;;3.50;;
12110;SDS011;6119;52.372;8.990;2023-11-19T16:54:36;11.80;;;3.40;;
12110;SDS011;6119;52.372;8.990;2023-11-19T16:57:22;16.23;;;3.63;;
12110;SDS011;6119;52.372;8.990;2023-11-19T17:00:09;16.63;;;4.00;;
12110;SDS011;6119;52.372;8.990;2023-11-19T17:02:57;16.30;;;4.03;;